createdAt,value
2023-05-14T00:02:36.265Z,11.85
2023-05-14T00:05:30.198Z,12.18
2023-05-14T00:08:18.977Z,15.60
2023-05-14T00:11:10.796Z,13.65
2023-05-14T00:13:59.406Z,12.40
2023-05-14T00:16:48.125Z,12.43
2023-05-14T00:19:36.875Z,14.18
2023-05-14T00:22:30.414Z,13.40
2023-05-14T00:25:19.321Z,13.45
2023-05-14T00:28:08.036Z,14.30
2023-05-14T00:50:23.344Z,14.13
2023-05-14T00:53:13.022Z,13.77
2023-05-14T01:28:39.823Z,14.60
2023-05-14T01:31:29.743Z,20.35
2023-05-14T01:34:21.516Z,15.93
2023-05-14T01:37:13.420Z,13.13
2023-05-14T01:40:03.460Z,13.82
2023-05-14T01:42:54.017Z,15.32
2023-05-14T01:45:44.841Z,15.90
2023-05-14T01:48:33.875Z,17.25
2023-05-14T01:51:22.777Z,13.95
2023-05-14T01:54:11.515Z,18.05
2023-05-14T01:57:00.353Z,15.50
2023-05-14T01:59:49.382Z,15.25
2023-05-14T02:02:39.558Z,17.67
2023-05-14T02:05:30.022Z,17.90
2023-05-14T02:08:18.623Z,16.50
2023-05-14T02:11:07.358Z,17.60
2023-05-14T02:13:56.002Z,17.45
2023-05-14T02:16:44.655Z,17.60
2023-05-14T02:19:35.375Z,17.33
2023-05-14T02:22:24.125Z,19.40
2023-05-14T02:25:12.734Z,15.43
2023-05-14T02:28:01.371Z,18.02
2023-05-14T02:30:50.049Z,17.90
2023-05-14T02:33:39.111Z,17.60
2023-05-14T02:36:29.198Z,16.00
2023-05-14T02:39:17.950Z,21.58
2023-05-14T02:42:08.251Z,17.20
2023-05-14T02:44:57.042Z,18.70
2023-05-14T02:47:46.249Z,16.40
2023-05-14T02:50:35.313Z,17.77
2023-05-14T02:53:25.829Z,17.65
2023-05-14T02:56:14.543Z,17.55
2023-05-14T02:59:03.506Z,19.50
2023-05-14T03:01:52.751Z,20.40
2023-05-14T03:04:42.194Z,18.08
2023-05-14T03:07:30.985Z,17.85
2023-05-14T03:10:21.755Z,26.50
2023-05-14T03:13:11.020Z,17.85
2023-05-14T03:15:59.696Z,15.57
2023-05-14T03:18:48.492Z,17.30
2023-05-14T03:21:37.500Z,16.20
2023-05-14T03:24:26.551Z,18.98
2023-05-14T03:27:16.552Z,20.80
2023-05-14T03:30:05.859Z,20.35
2023-05-14T03:32:54.902Z,19.38
2023-05-14T03:35:43.547Z,16.40
2023-05-14T03:38:32.214Z,17.05
2023-05-14T03:41:22.031Z,19.15
2023-05-14T03:44:12.071Z,18.48
2023-05-14T03:47:00.936Z,22.30
2023-05-14T03:49:49.973Z,17.55
2023-05-14T03:52:38.651Z,18.02
2023-05-14T03:55:27.731Z,16.75
2023-05-14T03:58:19.556Z,20.92
2023-05-14T04:01:09.934Z,22.02
2023-05-14T04:03:58.682Z,21.63
2023-05-14T04:06:47.387Z,21.75
2023-05-14T04:09:39.214Z,19.23
2023-05-14T04:12:28.340Z,17.42
2023-05-14T04:15:17.351Z,18.45
2023-05-14T04:18:07.602Z,16.42
2023-05-14T04:20:56.354Z,19.88
2023-05-14T04:23:45.115Z,17.08
2023-05-14T04:26:34.090Z,17.00
2023-05-14T04:29:22.782Z,17.52
2023-05-14T04:32:12.316Z,19.35
2023-05-14T04:35:02.508Z,20.05
2023-05-14T04:37:51.322Z,23.40
2023-05-14T04:40:40.041Z,16.85
2023-05-14T04:43:28.734Z,21.52
2023-05-14T04:46:17.435Z,17.25
2023-05-14T04:49:06.276Z,19.45
2023-05-14T04:51:56.402Z,16.05
2023-05-14T04:54:45.531Z,18.38
2023-05-14T04:57:34.333Z,19.48
2023-05-14T05:00:23.482Z,16.33
2023-05-14T05:03:12.714Z,17.42
2023-05-14T05:06:02.228Z,17.48
2023-05-14T05:08:52.277Z,17.70
2023-05-14T05:11:40.890Z,18.30
2023-05-14T05:14:29.642Z,18.00
2023-05-14T05:17:18.459Z,22.67
2023-05-14T05:20:10.069Z,16.92
2023-05-14T05:22:59.638Z,16.85
2023-05-14T05:25:50.096Z,14.15
2023-05-14T05:28:38.854Z,18.75
2023-05-14T05:31:27.474Z,15.48
2023-05-14T05:34:16.485Z,15.43
2023-05-14T05:37:06.241Z,17.48
2023-05-14T05:39:55.147Z,15.00
2023-05-14T05:42:45.171Z,18.42
2023-05-14T05:45:37.952Z,15.80
2023-05-14T05:48:26.708Z,15.65
2023-05-14T05:51:15.421Z,13.23
2023-05-14T05:54:04.084Z,17.92
2023-05-14T05:56:52.776Z,12.07
2023-05-14T05:59:42.765Z,14.80
2023-05-14T06:02:31.772Z,16.73
2023-05-14T06:05:20.757Z,17.30
2023-05-14T06:08:10.092Z,14.27
2023-05-14T06:10:58.715Z,11.73
2023-05-14T06:13:47.677Z,12.65
2023-05-14T06:16:38.063Z,12.35
2023-05-14T06:19:26.845Z,11.13
2023-05-14T06:22:16.241Z,14.20
2023-05-14T06:25:05.676Z,12.15
2023-05-14T06:27:54.352Z,12.30
2023-05-14T06:30:42.999Z,13.00
2023-05-14T06:33:33.551Z,13.07
2023-05-14T06:36:22.487Z,12.20
2023-05-14T06:39:12.706Z,16.60
2023-05-14T06:42:01.382Z,11.85
2023-05-14T06:44:52.461Z,8.85
2023-05-14T06:47:41.381Z,13.02
2023-05-14T06:50:34.973Z,12.80
2023-05-14T06:53:23.670Z,13.73
2023-05-14T06:56:13.726Z,11.05
2023-05-14T06:59:02.901Z,13.95
2023-05-14T07:01:51.775Z,11.13
2023-05-14T07:04:40.735Z,12.43
2023-05-14T07:07:31.254Z,9.55
2023-05-14T07:10:20.250Z,14.07
2023-05-14T07:13:09.767Z,9.85
2023-05-14T07:15:58.513Z,9.00
2023-05-14T07:18:47.306Z,8.73
2023-05-14T07:21:36.589Z,9.10
2023-05-14T07:24:27.256Z,13.68
2023-05-14T07:27:17.056Z,8.93
2023-05-14T07:30:06.532Z,10.90
2023-05-14T07:32:55.358Z,12.05
2023-05-14T07:35:44.220Z,10.90
2023-05-14T07:38:36.179Z,10.35
2023-05-14T07:41:26.368Z,9.88
2023-05-14T07:44:15.072Z,9.35
2023-05-14T07:47:04.408Z,8.82
2023-05-14T07:49:56.503Z,8.15
2023-05-14T07:52:45.228Z,9.68
2023-05-14T07:55:34.306Z,5.78
2023-05-14T07:58:25.191Z,11.15
2023-05-14T08:01:13.873Z,6.00
2023-05-14T08:04:02.772Z,9.65
2023-05-14T08:06:51.573Z,8.88
2023-05-14T08:09:40.434Z,6.43
2023-05-14T08:12:29.692Z,7.47
2023-05-14T08:15:19.944Z,8.23
2023-05-14T08:18:08.956Z,7.93
2023-05-14T08:20:57.939Z,7.70
2023-05-14T08:23:46.694Z,9.52
2023-05-14T08:26:35.401Z,8.70
2023-05-14T08:29:24.154Z,5.50
2023-05-14T08:32:23.185Z,9.57
2023-05-14T08:35:13.173Z,7.43
2023-05-14T08:38:05.634Z,6.57
2023-05-14T08:40:58.914Z,5.35
2023-05-14T08:43:56.709Z,4.95
2023-05-14T08:46:45.878Z,7.22
2023-05-14T08:49:42.106Z,8.60
2023-05-14T08:52:31.380Z,4.05
2023-05-14T08:55:21.007Z,6.93
2023-05-14T08:58:09.788Z,4.43
2023-05-14T09:00:58.599Z,8.63
2023-05-14T09:03:48.196Z,7.13
2023-05-14T09:06:39.291Z,6.13
2023-05-14T09:09:28.661Z,9.05
2023-05-14T09:12:17.678Z,6.85
2023-05-14T09:15:08.180Z,4.75
2023-05-14T09:17:57.863Z,3.70
2023-05-14T09:20:48.595Z,4.45
2023-05-14T09:23:43.904Z,9.38
2023-05-14T09:26:34.154Z,6.90
2023-05-14T09:29:22.824Z,4.97
2023-05-14T09:32:11.581Z,5.93
2023-05-14T09:35:00.325Z,7.40
2023-05-14T09:37:50.713Z,5.78
2023-05-14T09:40:41.246Z,7.75
2023-05-14T09:43:30.070Z,7.97
2023-05-14T09:46:19.163Z,3.47
2023-05-14T09:49:07.831Z,11.15
2023-05-14T09:51:58.061Z,6.13
2023-05-14T09:54:48.183Z,10.80
2023-05-14T09:57:38.291Z,4.00
2023-05-14T10:00:27.209Z,4.70
2023-05-14T10:03:19.574Z,6.15
2023-05-14T10:06:10.692Z,6.45
2023-05-14T10:09:04.184Z,5.82
2023-05-14T10:11:57.629Z,7.50
2023-05-14T10:14:53.513Z,7.45
2023-05-14T10:17:45.900Z,5.45
2023-05-14T10:20:35.039Z,6.45
2023-05-14T10:23:24.126Z,3.83
2023-05-14T10:26:13.152Z,5.03
2023-05-14T10:29:02.409Z,3.20
2023-05-14T10:31:57.207Z,3.55
2023-05-14T10:34:45.960Z,4.55
2023-05-14T10:37:34.641Z,8.10
2023-05-14T10:40:26.151Z,7.47
2023-05-14T10:43:17.350Z,11.23
2023-05-14T10:46:06.960Z,7.38
2023-05-14T10:49:01.122Z,4.85
2023-05-14T10:51:50.407Z,8.00
2023-05-14T10:54:39.462Z,4.50
2023-05-14T10:57:32.107Z,4.97
2023-05-14T11:00:21.553Z,4.28
2023-05-14T11:03:13.187Z,4.78
2023-05-14T11:06:05.354Z,6.03
2023-05-14T11:08:54.302Z,4.47
2023-05-14T11:11:42.963Z,4.22
2023-05-14T11:14:32.169Z,4.57
2023-05-14T11:17:21.589Z,3.25
2023-05-14T11:20:13.164Z,3.90
2023-05-14T11:23:03.574Z,5.68
2023-05-14T11:25:53.130Z,8.85
2023-05-14T11:28:42.178Z,4.95
2023-05-14T11:31:31.047Z,7.57
2023-05-14T11:34:19.804Z,14.07
2023-05-14T11:37:10.202Z,5.45
2023-05-14T11:40:02.170Z,2.75
2023-05-14T11:42:53.441Z,5.78
2023-05-14T11:45:42.467Z,3.15
2023-05-14T11:48:33.280Z,9.02
2023-05-14T11:51:23.164Z,5.10
2023-05-14T11:54:14.946Z,4.63
2023-05-14T11:57:10.244Z,11.48
2023-05-14T11:59:59.172Z,6.60
2023-05-14T12:02:49.365Z,4.03
2023-05-14T12:05:39.695Z,6.95
2023-05-14T12:08:30.094Z,5.32
2023-05-14T12:11:22.592Z,5.70
2023-05-14T12:14:16.776Z,5.80
2023-05-14T12:17:11.255Z,6.47
2023-05-14T12:20:00.046Z,4.75
2023-05-14T12:22:48.986Z,6.30
2023-05-14T12:25:39.445Z,4.95
2023-05-14T12:28:28.724Z,3.53
2023-05-14T12:31:18.960Z,4.07
2023-05-14T12:34:07.631Z,6.05
2023-05-14T12:36:56.610Z,4.85
2023-05-14T12:39:45.329Z,4.78
2023-05-14T12:42:34.021Z,3.90
2023-05-14T12:45:24.492Z,2.85
2023-05-14T12:48:16.607Z,4.40
2023-05-14T12:51:05.670Z,4.43
2023-05-14T12:53:55.096Z,6.07
2023-05-14T12:56:44.344Z,3.60
2023-05-14T12:59:34.917Z,3.75
2023-05-14T13:02:24.141Z,8.75
2023-05-14T13:05:14.397Z,7.80
2023-05-14T13:08:04.191Z,6.60
2023-05-14T13:10:53.275Z,3.60
2023-05-14T13:13:42.027Z,4.65
2023-05-14T13:16:31.353Z,4.30
2023-05-14T13:19:20.038Z,5.85
2023-05-14T13:22:10.419Z,4.72
2023-05-14T13:25:00.049Z,3.85
2023-05-14T13:27:50.894Z,9.07
2023-05-14T13:30:40.233Z,4.07
2023-05-14T13:33:29.034Z,3.80
2023-05-14T13:36:17.773Z,7.13
2023-05-14T13:39:07.958Z,6.85
2023-05-14T13:41:57.194Z,6.45
2023-05-14T13:44:46.125Z,3.95
2023-05-14T13:47:35.008Z,4.40
2023-05-14T13:50:24.028Z,4.40
2023-05-14T13:53:12.651Z,4.70
2023-05-14T13:56:03.479Z,7.28
2023-05-14T13:58:52.975Z,4.45
2023-05-14T14:01:43.339Z,7.07
2023-05-14T14:04:32.302Z,3.95
2023-05-14T14:07:21.399Z,3.40
2023-05-14T14:10:11.444Z,5.97
2023-05-14T14:13:01.679Z,9.10
2023-05-14T14:15:50.517Z,5.07
2023-05-14T14:18:39.432Z,3.65
2023-05-14T14:21:28.105Z,3.65
2023-05-14T14:24:16.882Z,3.00
2023-05-14T14:27:06.180Z,6.28
2023-05-14T14:29:56.929Z,4.80
2023-05-14T14:32:47.107Z,10.45
2023-05-14T14:35:37.450Z,4.72
2023-05-14T14:38:26.381Z,4.80
2023-05-14T14:41:15.139Z,4.53
2023-05-14T14:44:04.146Z,6.13
2023-05-14T14:46:54.208Z,5.30
2023-05-14T14:49:43.244Z,5.30
2023-05-14T14:52:32.327Z,6.47
2023-05-14T14:55:21.351Z,3.70
2023-05-14T14:58:10.554Z,3.28
2023-05-14T15:00:59.936Z,5.55
2023-05-14T15:03:50.328Z,7.32
2023-05-14T15:06:39.093Z,5.90
2023-05-14T15:09:27.892Z,4.03
2023-05-14T15:12:17.184Z,5.53
2023-05-14T15:15:07.086Z,7.75
2023-05-14T15:17:55.774Z,4.38
2023-05-14T15:20:46.221Z,3.30
2023-05-14T15:23:34.955Z,6.93
2023-05-14T15:26:24.519Z,4.32
2023-05-14T15:29:13.124Z,6.07
2023-05-14T15:32:02.235Z,7.68
2023-05-14T15:34:50.989Z,3.33
2023-05-14T15:37:43.028Z,4.10
2023-05-14T15:40:35.058Z,5.07
2023-05-14T15:43:23.739Z,3.90
2023-05-14T15:46:13.121Z,5.18
2023-05-14T15:49:02.147Z,4.68
2023-05-14T15:51:50.898Z,4.60
2023-05-14T15:54:40.988Z,5.22
2023-05-14T15:57:29.760Z,5.68
2023-05-14T16:00:19.669Z,5.03
2023-05-14T16:03:08.575Z,6.80
2023-05-14T16:05:57.337Z,4.47
2023-05-14T16:08:46.063Z,8.02
2023-05-14T16:11:36.281Z,3.65
2023-05-14T16:14:25.176Z,6.50
2023-05-14T16:17:14.172Z,5.22
2023-05-14T16:20:04.867Z,7.68
2023-05-14T16:22:53.629Z,4.88
2023-05-14T16:25:42.434Z,4.10
2023-05-14T16:28:32.502Z,5.68
2023-05-14T16:31:21.204Z,7.70
2023-05-14T16:34:10.040Z,4.47
2023-05-14T16:37:00.155Z,5.72
2023-05-14T16:39:49.098Z,3.75
2023-05-14T16:42:37.824Z,4.28
2023-05-14T16:45:28.139Z,3.88
2023-05-14T16:48:16.987Z,3.65
2023-05-14T16:51:05.706Z,5.05
2023-05-14T16:53:55.575Z,7.00
2023-05-14T16:56:48.477Z,4.43
2023-05-14T16:59:37.349Z,5.78
2023-05-14T17:02:27.575Z,4.93
2023-05-14T17:05:16.594Z,6.50
2023-05-14T17:08:06.109Z,4.30
2023-05-14T17:10:54.722Z,6.55
2023-05-14T17:13:43.376Z,4.57
2023-05-14T17:16:32.317Z,4.03
2023-05-14T17:19:22.699Z,10.65
2023-05-14T17:22:11.533Z,5.40
2023-05-14T17:25:00.292Z,5.10
2023-05-14T17:27:49.160Z,3.88
2023-05-14T17:30:38.081Z,3.20
2023-05-14T17:33:26.743Z,3.70
2023-05-14T17:36:17.262Z,4.80
2023-05-14T17:39:06.196Z,4.28
2023-05-14T17:41:55.027Z,4.82
2023-05-14T17:44:43.909Z,3.55
2023-05-14T17:47:33.122Z,5.07
2023-05-14T17:50:21.765Z,6.40
2023-05-14T17:53:12.226Z,6.03
2023-05-14T17:56:01.564Z,7.93
2023-05-14T17:58:50.865Z,6.43
2023-05-14T18:01:39.849Z,5.18
2023-05-14T18:04:28.655Z,3.95
2023-05-14T18:07:18.839Z,4.10
2023-05-14T18:10:10.340Z,5.72
2023-05-14T18:12:59.103Z,5.82
2023-05-14T18:15:48.480Z,12.27
2023-05-14T18:18:37.511Z,4.40
2023-05-14T18:21:26.222Z,6.10
2023-05-14T18:24:14.981Z,3.22
2023-05-14T18:27:06.247Z,9.02
2023-05-14T18:29:54.992Z,6.85
2023-05-14T18:32:45.986Z,4.18
2023-05-14T18:35:35.318Z,4.90
2023-05-14T18:38:25.200Z,8.25
2023-05-14T18:41:13.911Z,6.20
2023-05-14T18:44:04.613Z,9.27
2023-05-14T18:46:54.057Z,7.80
2023-05-14T18:49:42.895Z,6.38
2023-05-14T18:52:32.448Z,9.35
2023-05-14T18:55:21.403Z,10.40
2023-05-14T18:58:10.342Z,5.50
2023-05-14T19:01:04.080Z,12.10
2023-05-14T19:03:54.215Z,6.63
2023-05-14T19:06:43.333Z,6.43
2023-05-14T19:09:32.151Z,7.20
2023-05-14T19:12:20.890Z,5.60
2023-05-14T19:15:10.566Z,7.57
2023-05-14T19:18:01.620Z,7.28
2023-05-14T19:20:50.527Z,6.47
2023-05-14T19:23:39.508Z,6.32
2023-05-14T19:26:28.389Z,7.03
2023-05-14T19:29:17.140Z,8.63
2023-05-14T19:32:06.708Z,8.70
2023-05-14T19:34:57.179Z,7.53
2023-05-14T19:37:45.896Z,5.63
2023-05-14T19:40:34.546Z,9.50
2023-05-14T19:43:23.511Z,8.82
2023-05-14T19:46:12.364Z,9.00
2023-05-14T19:49:01.464Z,12.07
2023-05-14T19:51:51.437Z,8.02
2023-05-14T19:54:40.417Z,6.97
2023-05-14T19:57:29.526Z,8.65
2023-05-14T20:00:18.815Z,10.27
2023-05-14T20:03:07.936Z,14.18
2023-05-14T20:05:57.057Z,9.10
2023-05-14T20:08:47.248Z,5.65
2023-05-14T20:11:35.909Z,8.82
2023-05-14T20:14:24.682Z,9.45
2023-05-14T20:17:13.697Z,9.88
2023-05-14T20:20:02.525Z,9.20
2023-05-14T20:22:51.731Z,8.05
2023-05-14T20:25:43.396Z,9.43
2023-05-14T20:28:32.342Z,8.75
2023-05-14T20:31:21.616Z,7.80
2023-05-14T20:34:10.752Z,9.15
2023-05-14T20:36:59.553Z,8.35
2023-05-14T20:39:48.383Z,8.45
2023-05-14T20:42:38.489Z,10.38
2023-05-14T20:45:27.346Z,9.93
2023-05-14T20:48:17.731Z,15.98
2023-05-14T20:51:06.747Z,9.18
2023-05-14T20:53:55.487Z,11.25
2023-05-14T20:56:44.182Z,10.88
2023-05-14T20:59:34.420Z,11.52
2023-05-14T21:02:23.206Z,8.73
2023-05-14T21:05:11.981Z,8.95
2023-05-14T21:08:01.043Z,12.52
2023-05-14T21:10:49.862Z,10.13
2023-05-14T21:13:38.656Z,7.22
2023-05-14T21:16:28.886Z,8.23
2023-05-14T21:19:17.887Z,6.47
2023-05-14T21:22:07.880Z,9.85
2023-05-14T21:24:56.909Z,9.70
2023-05-14T21:27:45.863Z,13.23
2023-05-14T21:30:35.003Z,14.00
2023-05-14T21:33:25.227Z,6.97
2023-05-14T21:36:13.961Z,6.65
2023-05-14T21:39:02.679Z,7.55
2023-05-14T21:41:51.319Z,7.45
2023-05-14T21:44:40.425Z,10.55
2023-05-14T21:47:29.218Z,7.47
2023-05-14T21:50:19.610Z,10.63
2023-05-14T21:53:08.602Z,9.23
2023-05-14T21:55:57.521Z,8.88
2023-05-14T21:58:46.654Z,8.63
2023-05-14T22:01:45.854Z,11.65
2023-05-14T22:04:43.978Z,7.78
2023-05-14T22:07:34.731Z,6.63
2023-05-14T22:10:23.611Z,9.60
2023-05-14T22:13:12.213Z,11.40
2023-05-14T22:16:12.221Z,8.05
2023-05-14T22:19:02.892Z,11.90
2023-05-14T22:21:52.853Z,9.32
2023-05-14T22:24:43.006Z,8.60
2023-05-14T22:27:32.414Z,7.55
2023-05-14T22:30:21.394Z,10.38
2023-05-14T22:33:10.709Z,7.97
2023-05-14T22:35:59.692Z,6.68
2023-05-14T22:38:48.669Z,8.80
2023-05-14T22:41:38.804Z,5.45
2023-05-14T22:44:29.741Z,8.35
2023-05-14T22:47:19.302Z,7.40
2023-05-14T22:50:11.695Z,6.93
2023-05-14T22:53:00.875Z,5.93
2023-05-14T22:55:49.628Z,8.25
2023-05-14T22:58:39.711Z,6.90
2023-05-14T23:01:28.982Z,6.60
2023-05-14T23:04:17.855Z,9.18
2023-05-14T23:07:06.755Z,8.65
2023-05-14T23:09:55.398Z,8.25
2023-05-14T23:12:44.143Z,9.80
2023-05-14T23:15:34.963Z,7.07
2023-05-14T23:18:24.343Z,6.93
2023-05-14T23:21:13.544Z,9.20
2023-05-14T23:24:02.366Z,10.10
2023-05-14T23:26:51.531Z,8.40
2023-05-14T23:29:40.461Z,8.02
2023-05-14T23:32:33.095Z,4.43
2023-05-14T23:35:22.304Z,7.10
2023-05-14T23:38:11.151Z,7.05
2023-05-14T23:40:59.804Z,8.63
2023-05-14T23:43:49.007Z,7.38
2023-05-14T23:46:37.806Z,6.57
2023-05-14T23:49:27.989Z,7.05
2023-05-14T23:52:16.684Z,6.90
2023-05-14T23:55:05.993Z,5.80
2023-05-14T23:57:54.727Z,4.43
